ΕΜΥ, Εθνική Μετεωρολογική Υπηρεσία - Δελτία Καιρού, Προγνώσεις

ΑΕΡΟΝΑΥΤΙΛΙΑ

GREEK AIRPORTS CODES

TAF LGTS 161700Z 1618/1718 VRB03KT CAVOK PROB40 1702/1707 2000 BR SCT010 PROB30 1703/1706 0500 FG BKN002=

EUROPEAN AIRPORTS CODES